Time;durP1;ratioP1;P1;durP2;ratioP2;P2;SDS_P1;SDS_P2;PMS_P1;PMS_P2;Temp;Humidity;BMP_temperature;BMP_pressure;BME280_temperature;BME280_humidity;BME280_pressure;Samples;Min_cycle;Max_cycle;Signal;HPM_P1;HPM_P2
2023/10/31 00:01:52;;;;;;;2.17;2.07;;;14.90;99.90;;;;;;5075183;28;20635;-84
2023/10/31 00:04:17;;;;;;;3.27;1.80;;;15.00;99.90;;;;;;5075066;28;20176;-85
2023/10/31 00:06:43;;;;;;;3.07;1.93;;;15.00;99.90;;;;;;5074777;28;20185;-84
2023/10/31 00:09:10;;;;;;;2.67;2.10;;;15.10;99.90;;;;;;5075318;28;20171;-85
2023/10/31 00:11:36;;;;;;;2.33;2.10;;;15.10;99.90;;;;;;5075321;28;20207;-84
2023/10/31 00:14:02;;;;;;;1.90;1.80;;;15.10;99.90;;;;;;5084012;28;20206;-85
2023/10/31 00:16:28;;;;;;;3.53;1.80;;;15.00;99.90;;;;;;5076098;28;20178;-84
2023/10/31 00:18:53;;;;;;;3.00;1.97;;;15.10;99.90;;;;;;5072579;28;20310;-84
2023/10/31 00:21:19;;;;;;;2.80;2.07;;;15.10;99.90;;;;;;5072666;28;20185;-84
2023/10/31 00:23:47;;;;;;;4.17;2.30;;;15.10;99.90;;;;;;5074438;28;20877;-84
2023/10/31 00:26:14;;;;;;;2.50;2.20;;;14.90;99.90;;;;;;5074204;28;20653;-86
2023/10/31 00:28:40;;;;;;;2.27;2.10;;;14.90;99.90;;;;;;5074760;28;20172;-85
2023/10/31 00:31:07;;;;;;;2.80;2.17;;;14.80;99.90;;;;;;5073037;28;20197;-84
2023/10/31 00:33:36;;;;;;;3.63;2.33;;;14.80;99.90;;;;;;5074327;28;20239;-85
2023/10/31 00:36:02;;;;;;;4.07;2.00;;;14.70;99.90;;;;;;5072678;28;20179;-83
2023/10/31 00:38:28;;;;;;;2.20;2.00;;;14.70;99.90;;;;;;5073498;28;20223;-85
2023/10/31 00:40:54;;;;;;;6.73;2.20;;;14.70;99.90;;;;;;5073235;28;20582;-84
2023/10/31 00:43:20;;;;;;;2.10;2.00;;;14.70;99.90;;;;;;5075230;28;20179;-83
2023/10/31 00:45:45;;;;;;;4.83;2.10;;;14.70;99.90;;;;;;5073118;28;20521;-85
2023/10/31 00:48:11;;;;;;;2.13;1.93;;;14.80;99.90;;;;;;5073607;28;20372;-85
2023/10/31 00:50:37;;;;;;;5.73;2.67;;;14.80;99.90;;;;;;5073759;28;20888;-83
2023/10/31 00:53:02;;;;;;;4.63;2.30;;;14.80;99.90;;;;;;5073770;28;20206;-84
2023/10/31 00:55:28;;;;;;;2.57;2.33;;;14.80;99.90;;;;;;5073726;28;20205;-83
2023/10/31 00:57:54;;;;;;;2.43;2.03;;;14.90;99.90;;;;;;5072057;28;20183;-85
2023/10/31 01:00:20;;;;;;;5.77;2.23;;;14.90;99.90;;;;;;5073347;28;20523;-83
2023/10/31 01:02:46;;;;;;;4.27;2.23;;;14.90;99.90;;;;;;5083464;28;20174;-82
2023/10/31 01:05:13;;;;;;;2.97;2.17;;;15.00;99.90;;;;;;5085997;28;20246;-83
2023/10/31 01:07:39;;;;;;;3.53;2.17;;;15.00;99.90;;;;;;5076124;28;20249;-86
2023/10/31 01:10:05;;;;;;;2.97;2.00;;;15.00;99.90;;;;;;5073681;28;20269;-84
2023/10/31 01:12:30;;;;;;;4.80;2.03;;;14.90;99.90;;;;;;5076679;28;20556;-82
2023/10/31 01:14:56;;;;;;;3.20;2.07;;;14.90;99.90;;;;;;5077016;28;20186;-83
2023/10/31 01:17:22;;;;;;;5.87;2.17;;;14.90;99.90;;;;;;5079102;28;20185;-84
2023/10/31 01:19:48;;;;;;;2.63;2.20;;;14.90;99.90;;;;;;5077341;28;20256;-84
2023/10/31 01:22:14;;;;;;;7.57;2.50;;;14.90;99.90;;;;;;5076541;28;20204;-85
2023/10/31 01:24:39;;;;;;;2.30;1.93;;;15.00;99.90;;;;;;5079539;28;20203;-86
2023/10/31 01:27:05;;;;;;;2.10;1.90;;;14.90;99.90;;;;;;5094172;28;20230;-79
2023/10/31 01:29:31;;;;;;;2.73;2.30;;;15.00;99.90;;;;;;5097089;28;20224;-81
2023/10/31 01:31:57;;;;;;;4.60;2.30;;;15.00;99.90;;;;;;5079385;28;20625;-85
2023/10/31 01:34:23;;;;;;;7.10;2.20;;;15.00;99.90;;;;;;5078352;28;20206;-83
2023/10/31 01:36:49;;;;;;;4.30;2.33;;;15.00;99.90;;;;;;5078793;28;20237;-86
2023/10/31 01:39:14;;;;;;;2.30;2.10;;;14.90;99.90;;;;;;5079473;28;20176;-84
2023/10/31 01:41:43;;;;;;;2.10;2.00;;;14.90;99.90;;;;;;5076563;28;20174;-84
2023/10/31 01:44:10;;;;;;;3.73;2.40;;;15.00;99.90;;;;;;5078815;28;20173;-83
2023/10/31 01:46:36;;;;;;;6.17;2.23;;;14.90;99.90;;;;;;5077808;28;20178;-86
2023/10/31 01:49:02;;;;;;;6.90;2.30;;;15.00;99.90;;;;;;5075839;28;20228;-85
2023/10/31 01:51:28;;;;;;;2.20;2.00;;;15.00;99.90;;;;;;5076839;28;20169;-79
2023/10/31 01:53:55;;;;;;;4.50;2.23;;;15.00;99.90;;;;;;5075914;28;20243;-79
2023/10/31 01:56:21;;;;;;;4.53;2.53;;;15.00;99.90;;;;;;5075925;28;20179;-81
2023/10/31 01:58:49;;;;;;;3.23;2.53;;;15.10;99.90;;;;;;5077033;28;20206;-88
2023/10/31 02:01:15;;;;;;;3.10;2.53;;;15.00;99.90;;;;;;5075767;28;20623;-85
2023/10/31 02:03:41;;;;;;;2.20;2.00;;;15.10;99.90;;;;;;5075886;28;20202;-85
2023/10/31 02:06:07;;;;;;;3.07;2.50;;;15.10;99.90;;;;;;5076666;28;20229;-86
2023/10/31 02:08:33;;;;;;;2.60;2.30;;;15.10;99.90;;;;;;5075538;28;20164;-84
2023/10/31 02:10:59;;;;;;;2.87;1.93;;;15.00;99.90;;;;;;5076148;28;20182;-85
2023/10/31 02:13:25;;;;;;;3.07;2.50;;;15.00;99.90;;;;;;5076660;28;20217;-86
2023/10/31 02:15:51;;;;;;;3.00;2.43;;;15.00;99.90;;;;;;5078189;28;20767;-84
2023/10/31 02:18:17;;;;;;;3.50;2.60;;;15.00;99.90;;;;;;5078120;28;20643;-84
2023/10/31 02:20:43;;;;;;;2.20;2.00;;;14.90;99.90;;;;;;5075650;28;20185;-87
2023/10/31 02:23:08;;;;;;;2.53;2.37;;;15.00;99.90;;;;;;5086189;28;20250;-85
2023/10/31 02:25:34;;;;;;;2.03;1.93;;;14.90;99.90;;;;;;5086455;28;20191;-86
2023/10/31 02:28:00;;;;;;;2.70;2.33;;;14.90;99.90;;;;;;5074688;28;20694;-85
2023/10/31 02:30:27;;;;;;;5.73;2.50;;;14.90;99.90;;;;;;5074943;28;20184;-85
2023/10/31 02:32:53;;;;;;;2.50;2.33;;;14.90;99.90;;;;;;5076302;28;20211;-84
2023/10/31 02:35:19;;;;;;;2.30;2.10;;;15.00;99.90;;;;;;5074291;28;20173;-86
2023/10/31 02:37:48;;;;;;;2.87;2.27;;;14.90;99.90;;;;;;5076296;28;20187;-83
2023/10/31 02:40:14;;;;;;;3.50;2.50;;;14.90;99.90;;;;;;5078557;28;20205;-84
2023/10/31 02:42:40;;;;;;;9.30;2.40;;;14.90;99.90;;;;;;5076015;28;20255;-84
2023/10/31 02:45:07;;;;;;;4.13;2.40;;;14.80;99.90;;;;;;5076482;28;20234;-85
2023/10/31 02:47:32;;;;;;;3.67;2.23;;;14.70;99.90;;;;;;5074768;28;20175;-85
2023/10/31 02:49:58;;;;;;;3.23;2.40;;;14.60;99.90;;;;;;5073883;28;20194;-86
2023/10/31 02:52:24;;;;;;;3.87;2.47;;;14.70;99.90;;;;;;5075746;28;20205;-84
2023/10/31 02:54:49;;;;;;;3.40;2.27;;;14.60;99.90;;;;;;5075739;28;20173;-86
2023/10/31 02:57:16;;;;;;;3.77;2.60;;;14.60;99.90;;;;;;5077866;28;20175;-82
2023/10/31 02:59:42;;;;;;;4.70;2.20;;;14.60;99.90;;;;;;5075372;28;20175;-86
2023/10/31 03:02:08;;;;;;;3.63;2.47;;;14.50;99.90;;;;;;5075505;28;20183;-85
2023/10/31 03:04:33;;;;;;;3.60;2.30;;;14.50;99.90;;;;;;5073050;28;20249;-85
2023/10/31 03:06:59;;;;;;;2.83;1.87;;;14.40;99.90;;;;;;5075091;28;20173;-85
2023/10/31 03:09:25;;;;;;;3.50;2.33;;;14.40;99.90;;;;;;5075036;28;20178;-84
2023/10/31 03:11:50;;;;;;;3.30;2.30;;;14.40;99.90;;;;;;5074244;28;20229;-84
2023/10/31 03:14:16;;;;;;;2.63;2.53;;;14.40;99.90;;;;;;5074842;28;20227;-85
2023/10/31 03:16:42;;;;;;;2.50;2.30;;;14.40;99.90;;;;;;5075517;28;20266;-85
2023/10/31 03:19:08;;;;;;;3.40;2.17;;;14.40;99.90;;;;;;5075001;28;20258;-84
2023/10/31 03:21:33;;;;;;;2.10;2.00;;;14.40;99.90;;;;;;5074319;28;20513;-85
2023/10/31 03:24:00;;;;;;;2.93;2.10;;;14.40;99.90;;;;;;5074689;28;20210;-85
2023/10/31 03:26:25;;;;;;;3.67;2.40;;;14.40;99.90;;;;;;5076237;28;20220;-85
2023/10/31 03:28:56;;;;;;;4.30;2.27;;;14.40;99.90;;;;;;5075975;28;20244;-84
2023/10/31 03:31:23;;;;;;;2.50;1.80;;;14.40;99.90;;;;;;5072943;28;20626;-84
2023/10/31 03:33:49;;;;;;;2.10;1.83;;;14.50;99.90;;;;;;5073155;28;20283;-84
2023/10/31 03:36:16;;;;;;;2.83;1.90;;;14.50;99.90;;;;;;5078236;28;20174;-81
2023/10/31 03:38:41;;;;;;;2.00;1.83;;;14.60;99.90;;;;;;5094641;28;20183;-79
2023/10/31 03:41:08;;;;;;;3.13;2.07;;;14.60;99.90;;;;;;5095476;28;20224;-81
2023/10/31 03:43:33;;;;;;;1.80;1.70;;;14.60;99.90;;;;;;5096553;28;20205;-86
2023/10/31 03:46:00;;;;;;;2.07;1.90;;;14.60;99.90;;;;;;5076708;28;20211;-84
2023/10/31 03:48:25;;;;;;;2.67;2.00;;;14.60;99.90;;;;;;5074861;28;20225;-84
2023/10/31 03:50:51;;;;;;;3.90;2.00;;;14.60;99.90;;;;;;5073704;28;20640;-84
2023/10/31 03:53:17;;;;;;;2.10;2.00;;;14.60;99.90;;;;;;5073245;28;20241;-84
2023/10/31 03:55:43;;;;;;;2.30;1.90;;;14.50;99.90;;;;;;5073200;28;20546;-83
2023/10/31 03:58:09;;;;;;;2.40;1.83;;;14.60;99.90;;;;;;5073528;28;20177;-84
2023/10/31 04:00:34;;;;;;;4.10;1.90;;;14.60;99.90;;;;;;5074043;28;20232;-83
2023/10/31 04:03:01;;;;;;;3.30;1.80;;;14.60;99.90;;;;;;5074178;28;20176;-85
2023/10/31 04:05:27;;;;;;;2.50;1.80;;;14.60;99.90;;;;;;5073445;28;20189;-85
2023/10/31 04:07:53;;;;;;;3.00;1.90;;;14.70;99.90;;;;;;5073234;28;20262;-81
2023/10/31 04:10:19;;;;;;;2.90;1.83;;;14.60;99.90;;;;;;5073513;28;20168;-84
2023/10/31 04:12:45;;;;;;;2.70;2.47;;;14.60;99.90;;;;;;5075359;28;20231;-80
2023/10/31 04:15:11;;;;;;;1.70;1.60;;;14.60;99.90;;;;;;5075938;28;20494;-80
2023/10/31 04:17:37;;;;;;;2.57;1.57;;;14.60;99.90;;;;;;5074716;28;20232;-81
2023/10/31 04:20:03;;;;;;;2.47;1.80;;;14.60;99.90;;;;;;5082608;28;20167;-78
2023/10/31 04:22:29;;;;;;;2.83;1.80;;;14.60;99.90;;;;;;5089655;28;20171;-80
2023/10/31 04:24:56;;;;;;;3.63;1.97;;;14.60;99.90;;;;;;5086214;28;20173;-85
2023/10/31 04:27:22;;;;;;;2.53;1.90;;;14.60;99.90;;;;;;5076504;28;20329;-82
2023/10/31 04:29:47;;;;;;;2.03;1.90;;;14.60;99.90;;;;;;5075343;28;20262;-83
2023/10/31 04:32:13;;;;;;;3.10;2.40;;;14.60;99.90;;;;;;5075417;28;20182;-83
2023/10/31 04:34:39;;;;;;;4.57;4.17;;;14.60;99.90;;;;;;5075525;28;20669;-85
2023/10/31 04:37:05;;;;;;;5.20;3.33;;;14.60;99.90;;;;;;5074431;28;20179;-85
2023/10/31 04:39:31;;;;;;;3.43;3.13;;;14.60;99.90;;;;;;5073195;28;20179;-86
2023/10/31 04:41:56;;;;;;;3.73;2.63;;;14.60;99.90;;;;;;5073374;28;20224;-84
2023/10/31 04:44:22;;;;;;;4.33;2.20;;;14.60;99.90;;;;;;5074693;28;20177;-87
2023/10/31 04:46:48;;;;;;;4.40;2.23;;;14.50;99.90;;;;;;5077468;28;20504;-85
2023/10/31 04:49:15;;;;;;;3.03;2.00;;;14.60;99.90;;;;;;5077153;28;20175;-83
2023/10/31 04:51:41;;;;;;;2.43;2.10;;;14.50;99.90;;;;;;5076167;28;20183;-84
2023/10/31 04:54:07;;;;;;;2.27;1.90;;;14.40;99.90;;;;;;5076828;28;20252;-84
2023/10/31 04:56:33;;;;;;;2.87;2.40;;;14.40;99.90;;;;;;5076933;28;20176;-85
2023/10/31 04:58:58;;;;;;;2.60;1.70;;;14.50;99.90;;;;;;5077236;28;20175;-85
2023/10/31 05:01:24;;;;;;;3.07;2.23;;;14.50;99.90;;;;;;5080270;28;20700;-84
2023/10/31 05:03:50;;;;;;;1.80;1.70;;;14.50;99.90;;;;;;5088833;28;20214;-85
2023/10/31 05:06:20;;;;;;;2.87;2.10;;;14.50;99.90;;;;;;5079115;28;20658;-85
2023/10/31 05:08:46;;;;;;;3.77;2.20;;;14.50;99.90;;;;;;5075698;28;20174;-84
2023/10/31 05:11:12;;;;;;;4.23;1.83;;;14.50;99.90;;;;;;5076646;28;20281;-83
2023/10/31 05:13:41;;;;;;;2.80;2.10;;;14.40;99.90;;;;;;5078077;28;20236;-83
2023/10/31 05:16:07;;;;;;;2.30;2.03;;;14.40;99.90;;;;;;5079771;28;20190;-85
2023/10/31 05:18:33;;;;;;;2.00;1.90;;;14.40;99.90;;;;;;5078545;28;20175;-85
2023/10/31 05:21:00;;;;;;;2.30;2.20;;;14.50;99.90;;;;;;5078774;28;20167;-83
2023/10/31 05:23:26;;;;;;;2.30;2.13;;;14.40;99.90;;;;;;5078079;28;20175;-83
2023/10/31 05:25:51;;;;;;;2.20;2.00;;;14.50;99.90;;;;;;5089827;28;20241;-79
2023/10/31 05:28:17;;;;;;;2.07;1.97;;;14.50;99.90;;;;;;5098954;28;20168;-80
2023/10/31 05:30:43;;;;;;;3.70;2.20;;;14.50;99.90;;;;;;5092390;28;20519;-84
2023/10/31 05:33:09;;;;;;;2.40;2.00;;;14.50;99.90;;;;;;5078832;28;20196;-85
2023/10/31 05:35:35;;;;;;;3.30;2.50;;;14.50;99.90;;;;;;5077489;28;20172;-84
2023/10/31 05:38:01;;;;;;;7.13;2.33;;;14.50;99.90;;;;;;5076849;28;20187;-84
2023/10/31 05:40:29;;;;;;;2.00;1.90;;;14.50;99.90;;;;;;5075987;28;20198;-83
2023/10/31 05:42:54;;;;;;;2.57;2.37;;;14.40;99.90;;;;;;5077128;28;20250;-83
2023/10/31 05:45:21;;;;;;;2.10;2.00;;;14.40;99.90;;;;;;5075847;28;20214;-85
2023/10/31 05:47:46;;;;;;;6.17;2.40;;;14.40;99.90;;;;;;5075897;28;20255;-85
2023/10/31 05:50:12;;;;;;;2.33;2.13;;;14.40;99.90;;;;;;5075899;28;20226;-84
2023/10/31 05:52:38;;;;;;;2.37;2.00;;;14.40;99.90;;;;;;5075923;28;20221;-84
2023/10/31 05:55:04;;;;;;;2.87;2.50;;;14.40;99.90;;;;;;5076562;28;20231;-81
2023/10/31 05:57:30;;;;;;;2.50;2.30;;;14.30;99.90;;;;;;5073276;28;20175;-80
2023/10/31 05:59:55;;;;;;;2.30;2.13;;;14.30;99.90;;;;;;5075136;28;20656;-82
2023/10/31 06:02:21;;;;;;;3.87;2.73;;;14.20;99.90;;;;;;5077420;28;20198;-85
2023/10/31 06:04:47;;;;;;;3.33;2.70;;;14.10;99.90;;;;;;5074343;28;20306;-82
2023/10/31 06:07:12;;;;;;;2.60;2.37;;;14.20;99.90;;;;;;5077933;28;20305;-81
2023/10/31 06:09:38;;;;;;;3.53;2.40;;;14.10;99.90;;;;;;5075526;28;20270;-81
2023/10/31 06:12:05;;;;;;;4.43;3.10;;;14.10;99.90;;;;;;5078584;28;20183;-84
2023/10/31 06:14:31;;;;;;;6.43;2.23;;;14.10;99.90;;;;;;5078039;28;20286;-83
2023/10/31 06:16:59;;;;;;;3.40;2.37;;;14.00;99.90;;;;;;5075553;28;20650;-84
2023/10/31 06:19:24;;;;;;;3.37;2.77;;;14.00;99.90;;;;;;5077551;28;20171;-84
2023/10/31 06:21:50;;;;;;;3.10;2.30;;;13.90;99.90;;;;;;5080935;28;20185;-82
2023/10/31 06:24:16;;;;;;;3.60;2.50;;;14.00;99.90;;;;;;5087501;28;20179;-84
2023/10/31 06:26:41;;;;;;;2.57;2.37;;;14.00;99.90;;;;;;5076409;28;20242;-83
2023/10/31 06:29:07;;;;;;;2.83;2.20;;;14.00;99.90;;;;;;5076808;28;20198;-82
2023/10/31 06:31:33;;;;;;;5.50;2.53;;;14.00;99.90;;;;;;5076489;28;20175;-83
2023/10/31 06:33:59;;;;;;;3.63;2.80;;;14.00;99.90;;;;;;5076085;28;20634;-83
2023/10/31 06:36:24;;;;;;;6.27;3.20;;;14.60;99.90;;;;;;5076652;28;20163;-85
2023/10/31 06:38:50;;;;;;;3.77;2.60;;;14.00;99.90;;;;;;5076540;28;20178;-83
2023/10/31 06:41:16;;;;;;;2.40;2.20;;;14.00;99.90;;;;;;5088017;28;20179;-82
2023/10/31 06:43:42;;;;;;;3.40;2.57;;;14.10;99.90;;;;;;5097762;28;20194;-82
2023/10/31 06:46:15;;;;;;;2.60;2.40;;;14.10;99.90;;;;;;5093081;28;20172;-82
2023/10/31 06:48:42;;;;;;;4.37;2.67;;;14.10;99.90;;;;;;5087821;28;20237;-84
2023/10/31 06:51:11;;;;;;;4.13;2.90;;;14.20;99.90;;;;;;5083280;28;20264;-77
2023/10/31 06:53:37;;;;;;;3.03;2.77;;;14.20;99.90;;;;;;5083363;28;20644;-82
2023/10/31 06:56:03;;;;;;;3.07;2.80;;;14.20;99.90;;;;;;5084054;28;20171;-82
2023/10/31 06:58:29;;;;;;;3.67;2.90;;;14.40;99.90;;;;;;5080442;28;20178;-84
2023/10/31 07:00:58;;;;;;;4.23;3.83;;;14.30;99.90;;;;;;5062785;28;20182;-84
2023/10/31 07:03:24;;;;;;;4.10;3.30;;;14.20;99.90;;;;;;5082715;28;20176;-84
2023/10/31 07:05:50;;;;;;;3.70;3.00;;;14.20;99.90;;;;;;5080555;28;20198;-80
2023/10/31 07:08:19;;;;;;;3.10;2.90;;;14.20;99.90;;;;;;5085137;28;20179;-82
2023/10/31 07:10:45;;;;;;;3.27;2.97;;;15.10;99.90;;;;;;5085171;28;20182;-82
2023/10/31 07:13:11;;;;;;;3.87;2.87;;;14.20;99.90;;;;;;5085705;28;20992;-77
2023/10/31 07:15:38;;;;;;;4.13;2.97;;;14.20;99.90;;;;;;5090254;28;20194;-81
2023/10/31 07:18:07;;;;;;;2.60;2.40;;;14.20;99.90;;;;;;5090555;28;20188;-79
2023/10/31 07:20:33;;;;;;;3.60;2.77;;;14.20;99.90;;;;;;5082466;28;20191;-83
2023/10/31 07:22:59;;;;;;;6.10;2.50;;;14.20;99.90;;;;;;5077260;28;20183;-80
2023/10/31 07:25:25;;;;;;;2.93;2.60;;;14.10;99.90;;;;;;5075121;28;20188;-83
2023/10/31 07:27:50;;;;;;;4.47;2.70;;;14.10;99.90;;;;;;5074689;28;20167;-81
2023/10/31 07:30:16;;;;;;;8.83;2.87;;;14.10;99.90;;;;;;5074750;28;20175;-82
2023/10/31 07:32:42;;;;;;;2.87;2.67;;;14.10;99.90;;;;;;5073330;28;20209;-82
2023/10/31 07:35:11;;;;;;;5.00;2.70;;;14.10;99.90;;;;;;5073482;28;20253;-81
2023/10/31 07:37:37;;;;;;;5.67;3.00;;;14.10;99.90;;;;;;5073907;28;20274;-82
2023/10/31 07:40:04;;;;;;;3.77;3.13;;;14.20;99.90;;;;;;5072959;28;20175;-85
2023/10/31 07:42:30;;;;;;;4.93;3.83;;;14.10;99.90;;;;;;5074023;28;20182;-81
2023/10/31 07:44:55;;;;;;;4.00;2.87;;;14.20;99.90;;;;;;5075133;28;20593;-81
2023/10/31 07:47:21;;;;;;;7.10;3.20;;;14.20;99.90;;;;;;5073612;28;20184;-81
2023/10/31 07:49:48;;;;;;;2.80;2.70;;;14.30;99.90;;;;;;5073045;28;20241;-79
2023/10/31 07:52:14;;;;;;;4.37;2.80;;;14.30;99.90;;;;;;5071894;28;20175;-80
2023/10/31 07:54:40;;;;;;;3.60;3.00;;;14.30;99.90;;;;;;5073221;28;20196;-80
2023/10/31 07:57:06;;;;;;;5.87;3.63;;;14.30;99.90;;;;;;5073682;28;20529;-80
2023/10/31 07:59:35;;;;;;;6.23;3.73;;;14.40;99.90;;;;;;5073040;28;20172;-81
2023/10/31 08:02:03;;;;;;;2.90;2.67;;;14.40;99.90;;;;;;5084872;28;20224;-81
2023/10/31 08:04:29;;;;;;;2.97;2.77;;;14.40;99.90;;;;;;5086006;28;20200;-82
2023/10/31 08:06:56;;;;;;;6.00;2.70;;;14.40;99.90;;;;;;5074628;28;20167;-79
2023/10/31 08:09:22;;;;;;;4.10;2.70;;;14.50;99.90;;;;;;5073027;28;20182;-82
2023/10/31 08:11:47;;;;;;;3.00;2.70;;;14.40;99.90;;;;;;5074153;28;20176;-81
2023/10/31 08:14:15;;;;;;;3.07;2.83;;;14.40;99.90;;;;;;5078413;28;20205;-83
2023/10/31 08:16:41;;;;;;;3.07;2.50;;;14.50;99.90;;;;;;5073703;28;20537;-82
2023/10/31 08:19:07;;;;;;;4.37;2.60;;;14.30;99.90;;;;;;5075070;28;20178;-78
2023/10/31 08:21:35;;;;;;;3.00;2.80;;;14.60;99.90;;;;;;5078848;28;20188;-78
2023/10/31 08:24:03;;;;;;;5.50;2.67;;;14.60;99.90;;;;;;5079059;28;20191;-80
2023/10/31 08:26:31;;;;;;;6.50;2.80;;;14.70;99.90;;;;;;5080215;28;20227;-81
2023/10/31 08:28:57;;;;;;;2.73;2.53;;;14.60;99.90;;;;;;5083894;28;20176;-80
2023/10/31 08:31:23;;;;;;;6.30;3.00;;;14.60;99.90;;;;;;5080020;28;20277;-80
2023/10/31 08:33:48;;;;;;;5.60;2.73;;;14.70;99.90;;;;;;5079526;28;20275;-80
2023/10/31 08:36:14;;;;;;;3.23;2.70;;;14.70;99.90;;;;;;5080038;28;20274;-82
2023/10/31 08:38:40;;;;;;;4.37;2.73;;;14.70;99.90;;;;;;5078482;28;20174;-79
2023/10/31 08:41:06;;;;;;;3.47;2.83;;;14.80;99.90;;;;;;5077819;28;20187;-80
2023/10/31 08:43:32;;;;;;;3.13;2.90;;;14.80;99.90;;;;;;5077149;28;20199;-81
2023/10/31 08:45:57;;;;;;;2.83;2.63;;;14.80;99.90;;;;;;5077573;28;20177;-79
2023/10/31 08:48:23;;;;;;;3.53;3.10;;;14.70;99.90;;;;;;5077395;28;20180;-80
2023/10/31 08:50:49;;;;;;;3.23;2.67;;;14.70;99.90;;;;;;5076764;28;20644;-81
2023/10/31 08:53:15;;;;;;;3.50;2.30;;;14.70;99.90;;;;;;5076707;28;20254;-80
2023/10/31 08:55:44;;;;;;;4.40;2.70;;;14.80;99.90;;;;;;5077212;28;20216;-81
2023/10/31 08:58:14;;;;;;;2.83;2.43;;;14.80;99.90;;;;;;5078090;28;20197;-80
2023/10/31 09:00:42;;;;;;;3.00;2.70;;;14.80;99.90;;;;;;5095417;28;20167;-80
2023/10/31 09:03:08;;;;;;;3.60;2.87;;;14.70;99.90;;;;;;5099738;28;20280;-81
2023/10/31 09:05:34;;;;;;;5.30;3.13;;;14.70;99.90;;;;;;5098220;28;20172;-81
2023/10/31 09:08:00;;;;;;;6.90;3.37;;;14.70;99.90;;;;;;5082197;28;20176;-83
2023/10/31 09:10:26;;;;;;;5.43;2.77;;;14.70;99.90;;;;;;5080018;28;20175;-86
2023/10/31 09:12:51;;;;;;;4.57;3.27;;;14.60;99.90;;;;;;5088784;28;20198;-81
2023/10/31 09:15:18;;;;;;;4.47;3.40;;;14.60;99.90;;;;;;5081563;28;20190;-80
2023/10/31 09:17:44;;;;;;;6.20;3.63;;;14.50;99.90;;;;;;5077738;28;20192;-82
2023/10/31 09:20:11;;;;;;;5.00;3.40;;;14.50;99.90;;;;;;5077024;28;20232;-82
2023/10/31 09:22:37;;;;;;;5.77;4.27;;;14.40;99.90;;;;;;5076554;28;20180;-81
2023/10/31 09:25:03;;;;;;;5.30;3.70;;;14.40;99.90;;;;;;5074545;28;20177;-81
2023/10/31 09:27:29;;;;;;;5.93;4.17;;;14.30;99.90;;;;;;5075348;28;20223;-80
2023/10/31 09:29:55;;;;;;;3.90;3.60;;;14.20;99.90;;;;;;5076239;28;20182;-81
2023/10/31 09:32:21;;;;;;;6.90;3.77;;;14.20;99.90;;;;;;5075791;28;20171;-83
2023/10/31 09:34:47;;;;;;;4.07;3.63;;;14.20;99.90;;;;;;5074265;28;20223;-81
2023/10/31 09:37:12;;;;;;;2.00;1.90;;;14.10;99.90;;;;;;5076098;28;20163;-83
2023/10/31 09:39:39;;;;;;;1.50;1.47;;;13.80;99.90;;;;;;5075440;28;20179;-82
2023/10/31 09:42:06;;;;;;;1.50;1.40;;;13.60;99.90;;;;;;5076025;28;20183;-86
2023/10/31 09:44:32;;;;;;;3.23;1.20;;;13.50;99.90;;;;;;5075817;28;20327;-82
2023/10/31 09:46:57;;;;;;;1.27;1.17;;;13.40;99.90;;;;;;5076013;28;20319;-83
2023/10/31 09:49:24;;;;;;;2.83;1.90;;;13.30;99.90;;;;;;5084150;28;20203;-80
2023/10/31 09:51:50;;;;;;;1.23;1.17;;;13.30;99.90;;;;;;5076911;28;20167;-82
2023/10/31 09:54:17;;;;;;;1.10;1.10;;;13.30;99.90;;;;;;5074364;28;20217;-83
2023/10/31 09:56:43;;;;;;;1.27;1.20;;;13.20;99.90;;;;;;5075868;28;20158;-82
2023/10/31 09:59:09;;;;;;;1.13;1.00;;;13.20;99.90;;;;;;5075781;28;20204;-79
2023/10/31 10:01:35;;;;;;;1.20;1.20;;;13.20;99.90;;;;;;5075285;28;20275;-85
2023/10/31 10:04:01;;;;;;;2.37;1.40;;;13.20;99.90;;;;;;5075119;28;20246;-82
2023/10/31 10:06:28;;;;;;;1.50;1.20;;;13.20;99.90;;;;;;5075550;28;20179;-83
2023/10/31 10:08:56;;;;;;;2.20;1.27;;;13.20;99.90;;;;;;5074854;28;20198;-87
2023/10/31 10:11:22;;;;;;;0.80;0.80;;;13.20;99.90;;;;;;5087903;28;20171;-81
2023/10/31 10:13:48;;;;;;;1.53;0.90;;;13.20;99.90;;;;;;5089607;28;20213;-81
2023/10/31 10:16:31;;;;;;;1.63;0.90;;;13.30;99.90;;;;;;5078693;28;20512;-80
2023/10/31 10:18:57;;;;;;;0.80;0.80;;;13.30;99.90;;;;;;5076554;28;20167;-84
2023/10/31 10:21:23;;;;;;;1.43;1.10;;;13.30;99.90;;;;;;5090664;28;20277;-80
2023/10/31 10:23:52;;;;;;;0.93;0.93;;;13.30;99.90;;;;;;5080479;28;20179;-81
2023/10/31 10:26:21;;;;;;;1.03;0.97;;;13.20;99.90;;;;;;5072892;28;20238;-79
2023/10/31 10:28:48;;;;;;;0.90;0.90;;;13.10;99.90;;;;;;5074839;28;20197;-82
2023/10/31 10:31:15;;;;;;;1.13;1.00;;;13.00;99.90;;;;;;5080810;28;20186;-82
2023/10/31 10:33:41;;;;;;;3.57;0.90;;;12.90;99.90;;;;;;5079130;28;20211;-78
2023/10/31 10:36:10;;;;;;;0.87;0.87;;;12.70;99.90;;;;;;5073719;28;20171;-78
2023/10/31 10:38:37;;;;;;;0.67;0.67;;;12.60;99.90;;;;;;5073356;28;20206;-79
2023/10/31 10:41:07;;;;;;;0.67;0.67;;;12.40;99.90;;;;;;5073780;28;20178;-78
2023/10/31 10:43:38;;;;;;;0.50;0.50;;;12.30;99.90;;;;;;5072245;28;20179;-77
2023/10/31 10:46:05;;;;;;;0.67;0.30;;;12.20;99.90;;;;;;5073479;28;20212;-78
2023/10/31 10:48:35;;;;;;;0.60;0.60;;;12.10;99.90;;;;;;5075180;28;20171;-81
2023/10/31 10:51:11;;;;;;;0.80;0.80;;;11.90;99.90;;;;;;5098041;28;20143;-78
2023/10/31 10:53:52;;;;;;;1.37;1.33;;;12.00;99.90;;;;;;5095069;28;20222;-79
2023/10/31 10:56:26;;;;;;;1.30;1.30;;;12.00;99.90;;;;;;5076116;28;20174;-79
2023/10/31 10:58:57;;;;;;;0.87;0.80;;;11.90;99.90;;;;;;5074581;28;20174;-79
2023/10/31 11:01:23;;;;;;;0.47;0.47;;;11.80;99.90;;;;;;5074436;28;20606;-81
2023/10/31 11:03:49;;;;;;;1.00;1.00;;;11.80;99.90;;;;;;5074492;28;20581;-78
2023/10/31 11:06:16;;;;;;;0.60;0.60;;;11.80;99.90;;;;;;5073046;28;20179;-82
2023/10/31 11:08:44;;;;;;;1.53;0.73;;;11.60;99.90;;;;;;5073356;28;20535;-83
2023/10/31 11:11:10;;;;;;;0.80;0.80;;;11.70;99.90;;;;;;5075537;28;20186;-82
2023/10/31 11:13:37;;;;;;;0.50;0.50;;;11.70;99.90;;;;;;5075937;28;20215;-84
2023/10/31 11:16:10;;;;;;;0.40;0.40;;;11.70;99.90;;;;;;5076317;28;20163;-82
2023/10/31 11:18:37;;;;;;;0.70;0.70;;;11.80;99.90;;;;;;5080033;28;20159;-84
2023/10/31 11:21:04;;;;;;;1.53;0.50;;;11.90;99.90;;;;;;5083217;28;20205;-84
2023/10/31 11:23:30;;;;;;;0.43;0.43;;;11.90;99.90;;;;;;5087629;28;20169;-81
2023/10/31 11:25:55;;;;;;;0.50;0.50;;;12.00;99.90;;;;;;5057293;28;20317;-83
2023/10/31 11:28:21;;;;;;;0.40;0.40;;;12.00;99.90;;;;;;5074067;28;20656;-82
2023/10/31 11:30:52;;;;;;;0.30;0.30;;;12.00;99.90;;;;;;5073730;28;20228;-81
2023/10/31 11:33:21;;;;;;;0.30;0.30;;;12.00;99.90;;;;;;5074236;28;20203;-83
2023/10/31 11:36:04;;;;;;;0.30;0.30;;;11.90;99.90;;;;;;5074472;28;20206;-82
2023/10/31 11:38:35;;;;;;;0.50;0.50;;;11.90;99.90;;;;;;5075979;28;20251;-82
2023/10/31 11:41:03;;;;;;;0.37;0.37;;;11.80;99.90;;;;;;5083179;28;20202;-80
2023/10/31 11:43:41;;;;;;;2.33;0.60;;;11.80;99.90;;;;;;5091781;28;20210;-84
2023/10/31 11:46:24;;;;;;;0.60;0.60;;;11.80;99.90;;;;;;5080186;28;20184;-83
2023/10/31 11:48:52;;;;;;;1.57;1.47;;;11.90;99.90;;;;;;5074959;28;20589;-84
2023/10/31 11:51:18;;;;;;;0.83;0.60;;;12.00;99.90;;;;;;5073135;28;20187;-82
2023/10/31 11:53:45;;;;;;;1.13;0.80;;;12.00;99.90;;;;;;5073893;28;20210;-82
2023/10/31 11:56:11;;;;;;;0.80;0.80;;;12.10;99.90;;;;;;5072630;28;20175;-83
2023/10/31 11:58:37;;;;;;;0.50;0.50;;;11.90;99.90;;;;;;5074429;28;20265;-85
2023/10/31 12:01:04;;;;;;;0.43;0.43;;;11.80;99.90;;;;;;5073955;28;20233;-81
2023/10/31 12:03:39;;;;;;;0.20;0.20;;;11.70;99.90;;;;;;5074141;28;20264;-84
2023/10/31 12:06:05;;;;;;;0.50;0.50;;;12.00;99.90;;;;;;5074147;28;20201;-83
2023/10/31 12:08:33;;;;;;;0.40;0.40;;;11.60;99.90;;;;;;5073646;28;20689;-85
2023/10/31 12:11:10;;;;;;;0.30;0.30;;;11.60;99.90;;;;;;5073118;28;20183;-75
2023/10/31 12:13:51;;;;;;;1.03;0.40;;;11.60;99.90;;;;;;5071853;28;20210;-79
2023/10/31 12:16:17;;;;;;;0.40;0.40;;;11.60;99.90;;;;;;5074957;28;20171;-78
2023/10/31 12:18:43;;;;;;;0.40;0.40;;;11.60;99.90;;;;;;5072692;28;20175;-78
2023/10/31 12:21:11;;;;;;;0.73;0.40;;;11.80;99.90;;;;;;5072615;28;20629;-78
2023/10/31 12:23:37;;;;;;;0.30;0.30;;;11.60;99.90;;;;;;5072503;28;20178;-76
2023/10/31 12:26:03;;;;;;;0.93;0.83;;;11.50;99.90;;;;;;5071803;28;20625;-79
2023/10/31 12:28:29;;;;;;;1.83;0.50;;;11.70;99.90;;;;;;5072601;28;20182;-79
2023/10/31 12:30:57;;;;;;;0.37;0.37;;;11.70;99.90;;;;;;5071746;28;20170;-78
2023/10/31 12:33:26;;;;;;;0.63;0.60;;;11.60;99.90;;;;;;5074019;28;20203;-76
2023/10/31 12:36:09;;;;;;;0.50;0.50;;;11.60;99.90;;;;;;5080586;28;20579;-78
2023/10/31 12:38:35;;;;;;;1.73;0.70;;;11.70;99.90;;;;;;5085677;28;20159;-76
2023/10/31 12:41:02;;;;;;;1.90;0.70;;;11.70;99.90;;;;;;5074644;28;20178;-77
2023/10/31 12:43:29;;;;;;;1.03;0.57;;;11.60;99.90;;;;;;5071541;28;20741;-79
2023/10/31 12:45:55;;;;;;;0.40;0.40;;;11.70;99.90;;;;;;5072595;28;20178;-77